Time;durP1;ratioP1;P1;durP2;ratioP2;P2;SDS_P1;SDS_P2;PMS_P1;PMS_P2;Temp;Humidity;BMP_temperature;BMP_pressure;BME280_temperature;BME280_humidity;BME280_pressure;Samples;Min_cycle;Max_cycle;Signal;HPM_P1;HPM_P2
2022/10/19 00:01:42;;;;;;;13.63;6.88;;;11.40;99.90;;;;;;5009481;28;20189;-55
2022/10/19 00:04:08;;;;;;;15.93;7.05;;;11.30;99.90;;;;;;5009751;28;20214;-59
2022/10/19 00:06:35;;;;;;;15.00;6.68;;;11.30;99.90;;;;;;5014462;28;20246;-56
2022/10/19 00:09:08;;;;;;;14.98;6.80;;;11.30;99.90;;;;;;5012412;28;20179;-54
2022/10/19 00:11:37;;;;;;;14.50;6.68;;;11.30;99.90;;;;;;5011171;28;20181;-64
2022/10/19 00:14:03;;;;;;;13.23;6.20;;;11.20;99.90;;;;;;5011059;28;20212;-57
2022/10/19 00:16:32;;;;;;;11.93;6.47;;;11.20;99.90;;;;;;5013444;28;20217;-55
2022/10/19 00:18:59;;;;;;;17.27;6.85;;;11.20;99.90;;;;;;5013645;28;20172;-54
2022/10/19 00:21:25;;;;;;;12.00;6.43;;;11.20;99.90;;;;;;5012354;28;20584;-53
2022/10/19 00:23:51;;;;;;;13.57;6.22;;;11.10;99.90;;;;;;5008060;28;20204;-59
2022/10/19 00:26:17;;;;;;;15.93;6.13;;;11.10;99.90;;;;;;5012737;28;20223;-53
2022/10/19 00:28:43;;;;;;;9.82;5.53;;;11.10;99.90;;;;;;5012740;28;20669;-54
2022/10/19 00:31:12;;;;;;;14.80;6.05;;;11.10;99.90;;;;;;5013834;28;20180;-55
2022/10/19 00:33:39;;;;;;;14.55;6.40;;;11.10;99.90;;;;;;5007909;28;21938;-55
2022/10/19 00:36:12;;;;;;;11.57;4.97;;;11.10;99.90;;;;;;5013322;28;20177;-57
2022/10/19 00:38:41;;;;;;;12.38;5.35;;;11.10;99.90;;;;;;5013517;28;20255;-56
2022/10/19 00:41:06;;;;;;;15.40;5.82;;;11.10;99.90;;;;;;5012888;28;20219;-56
2022/10/19 00:44:12;;;;;;;12.20;5.60;;;11.10;99.90;;;;;;5009645;28;20236;-55
2022/10/19 00:46:40;;;;;;;13.77;6.95;;;11.10;99.90;;;;;;5007819;28;20203;-55
2022/10/19 00:49:23;;;;;;;16.23;9.07;;;11.10;99.90;;;;;;5013467;28;20223;-54
2022/10/19 00:52:00;;;;;;;16.45;8.50;;;11.10;99.90;;;;;;5013468;28;20161;-56
2022/10/19 00:54:26;;;;;;;19.08;8.27;;;11.00;99.90;;;;;;5009525;28;20295;-57
2022/10/19 00:56:55;;;;;;;12.45;7.40;;;11.00;99.90;;;;;;5005128;28;20187;-57
2022/10/19 00:59:23;;;;;;;11.07;5.70;;;11.00;99.90;;;;;;5013336;28;20207;-56
2022/10/19 01:01:51;;;;;;;12.50;6.03;;;10.90;99.90;;;;;;5013110;28;20191;-56
2022/10/19 01:04:20;;;;;;;9.45;5.90;;;10.90;99.90;;;;;;5011395;28;20188;-55
2022/10/19 01:06:45;;;;;;;13.55;6.03;;;10.90;99.90;;;;;;5013251;28;20165;-54
2022/10/19 01:09:11;;;;;;;11.20;5.60;;;10.80;99.90;;;;;;5012787;28;20181;-55
2022/10/19 01:11:37;;;;;;;13.05;5.68;;;10.80;99.90;;;;;;5028694;28;20184;-56
2022/10/19 01:14:21;;;;;;;11.75;5.80;;;10.80;99.90;;;;;;5010508;28;20193;-53
2022/10/19 01:17:10;;;;;;;12.70;6.07;;;10.70;99.90;;;;;;5005995;28;20185;-57
2022/10/19 01:20:09;;;;;;;12.90;6.05;;;10.70;99.90;;;;;;5011761;28;20196;-55
2022/10/19 01:23:12;;;;;;;16.75;6.47;;;10.70;99.90;;;;;;5012734;28;20223;-55
2022/10/19 01:25:51;;;;;;;15.40;6.35;;;10.70;99.90;;;;;;5010532;28;20193;-56
2022/10/19 01:28:31;;;;;;;11.68;6.43;;;10.60;99.90;;;;;;5012693;28;20227;-56
2022/10/19 01:30:59;;;;;;;13.98;7.00;;;10.60;99.90;;;;;;5011617;28;20283;-56
2022/10/19 01:33:40;;;;;;;12.35;6.38;;;10.60;99.90;;;;;;5012718;28;20200;-56
2022/10/19 01:36:44;;;;;;;20.08;8.10;;;10.60;99.90;;;;;;5010885;28;20192;-56
2022/10/19 01:39:13;;;;;;;18.48;7.88;;;10.50;99.90;;;;;;4990263;28;20189;-54
2022/10/19 01:41:52;;;;;;;15.18;7.03;;;10.50;99.90;;;;;;5012196;28;20673;-56
2022/10/19 01:44:26;;;;;;;13.73;6.75;;;10.50;99.90;;;;;;5016959;28;20191;-55
2022/10/19 01:46:57;;;;;;;19.33;7.68;;;10.50;99.90;;;;;;5012997;28;20639;-50
2022/10/19 01:49:30;;;;;;;13.05;7.03;;;10.50;99.90;;;;;;5013952;28;20294;-53
2022/10/19 01:52:01;;;;;;;12.55;6.45;;;10.50;99.90;;;;;;5016240;28;20228;-54
2022/10/19 01:54:33;;;;;;;12.60;6.28;;;10.50;99.90;;;;;;5016035;28;20199;-56
2022/10/19 01:57:03;;;;;;;15.35;6.68;;;10.50;99.90;;;;;;5014189;28;20215;-54
2022/10/19 01:59:31;;;;;;;12.95;6.57;;;10.50;99.90;;;;;;5011056;28;20188;-51
2022/10/19 02:01:57;;;;;;;11.95;6.45;;;10.40;99.90;;;;;;5014783;28;20283;-50
2022/10/19 02:04:24;;;;;;;12.38;6.05;;;10.40;99.90;;;;;;5016226;28;20189;-51
2022/10/19 02:06:53;;;;;;;12.43;5.88;;;10.40;99.90;;;;;;5015147;28;20630;-57
2022/10/19 02:09:19;;;;;;;10.95;5.78;;;10.40;99.90;;;;;;5011665;28;20176;-53
2022/10/19 02:11:55;;;;;;;14.30;6.25;;;10.40;99.90;;;;;;5015110;28;20208;-52
2022/10/19 02:14:28;;;;;;;9.68;5.45;;;10.40;99.90;;;;;;5015596;28;20672;-54
2022/10/19 02:17:01;;;;;;;11.23;6.32;;;10.40;99.90;;;;;;5015945;28;20253;-54
2022/10/19 02:19:26;;;;;;;10.77;5.65;;;10.40;99.90;;;;;;5011067;28;20215;-54
2022/10/19 02:21:53;;;;;;;12.70;6.30;;;10.50;99.90;;;;;;5013500;28;20193;-56
2022/10/19 02:24:18;;;;;;;10.57;6.00;;;10.50;99.90;;;;;;5015760;28;20192;-56
2022/10/19 02:26:45;;;;;;;9.07;5.40;;;10.50;99.90;;;;;;5014708;28;20562;-54
2022/10/19 02:29:13;;;;;;;9.95;5.93;;;10.50;99.90;;;;;;5012551;28;20195;-56
2022/10/19 02:31:40;;;;;;;10.10;5.70;;;10.50;99.90;;;;;;5013815;28;20176;-58
2022/10/19 02:34:06;;;;;;;12.50;6.10;;;10.50;99.90;;;;;;5015230;28;20205;-54
2022/10/19 02:36:32;;;;;;;13.10;5.85;;;10.50;99.90;;;;;;5014580;28;20189;-54
2022/10/19 02:38:58;;;;;;;13.52;6.00;;;10.50;99.90;;;;;;5015341;28;20638;-55
2022/10/19 02:41:44;;;;;;;8.63;5.55;;;10.40;99.90;;;;;;5011456;28;20188;-55
2022/10/19 02:44:22;;;;;;;9.88;5.68;;;10.40;99.90;;;;;;5015728;28;20270;-57
2022/10/19 02:46:58;;;;;;;10.32;5.43;;;10.40;99.90;;;;;;5015114;28;20264;-56
2022/10/19 02:49:26;;;;;;;12.60;5.40;;;10.30;99.90;;;;;;5014624;28;20219;-56
2022/10/19 02:51:56;;;;;;;12.98;5.70;;;10.20;99.90;;;;;;5011316;28;20224;-55
2022/10/19 02:54:23;;;;;;;13.82;5.93;;;10.20;99.90;;;;;;5033684;28;20208;-56
2022/10/19 02:56:48;;;;;;;12.57;6.00;;;10.20;99.90;;;;;;5034114;28;20263;-56
2022/10/19 02:59:14;;;;;;;12.23;5.20;;;10.10;99.90;;;;;;5035261;28;20266;-55
2022/10/19 03:01:40;;;;;;;9.77;5.60;;;10.10;99.90;;;;;;5014887;28;20616;-52
2022/10/19 03:04:05;;;;;;;9.50;5.60;;;10.10;99.90;;;;;;5009819;28;20701;-54
2022/10/19 03:06:31;;;;;;;10.07;5.85;;;10.00;99.90;;;;;;5014063;28;20184;-53
2022/10/19 03:08:57;;;;;;;10.43;5.68;;;10.00;99.90;;;;;;5017926;28;20264;-54
2022/10/19 03:11:23;;;;;;;9.90;5.80;;;9.90;99.90;;;;;;5022944;28;20638;-54
2022/10/19 03:13:48;;;;;;;11.32;5.03;;;9.90;99.90;;;;;;5011681;28;20261;-55
2022/10/19 03:16:14;;;;;;;11.68;5.40;;;9.80;99.90;;;;;;5015207;28;20184;-55
2022/10/19 03:18:40;;;;;;;12.30;5.85;;;9.80;99.90;;;;;;5014326;28;20272;-56
2022/10/19 03:21:10;;;;;;;8.82;5.50;;;9.80;99.90;;;;;;4996056;28;20188;-55
2022/10/19 03:23:37;;;;;;;14.90;5.88;;;9.70;99.90;;;;;;5009186;28;20196;-57
2022/10/19 03:26:04;;;;;;;17.33;5.93;;;9.70;99.90;;;;;;5013415;28;20626;-56
2022/10/19 03:28:30;;;;;;;8.70;5.10;;;9.70;99.90;;;;;;5016536;28;20188;-55
2022/10/19 03:30:55;;;;;;;12.65;6.03;;;9.70;99.90;;;;;;5033974;28;20555;-55
2022/10/19 03:33:22;;;;;;;10.40;5.80;;;9.60;99.90;;;;;;5013488;28;20235;-55
2022/10/19 03:35:47;;;;;;;11.23;5.75;;;9.70;99.90;;;;;;5012189;28;20189;-58
2022/10/19 03:38:13;;;;;;;12.90;6.00;;;9.60;99.90;;;;;;5012863;28;20728;-54
2022/10/19 03:40:39;;;;;;;11.57;5.55;;;9.60;99.90;;;;;;4996985;28;20704;-54
2022/10/19 03:43:05;;;;;;;13.50;6.10;;;9.50;99.90;;;;;;5014031;28;20256;-56
2022/10/19 03:45:30;;;;;;;10.20;5.57;;;9.50;99.90;;;;;;5011885;28;20185;-56
2022/10/19 03:47:56;;;;;;;10.70;5.65;;;9.40;99.90;;;;;;5009671;28;20188;-59
2022/10/19 03:50:22;;;;;;;9.32;5.35;;;9.40;99.90;;;;;;5019128;28;20267;-54
2022/10/19 03:52:48;;;;;;;10.23;5.70;;;9.40;99.90;;;;;;5015426;28;20184;-55
2022/10/19 03:55:15;;;;;;;13.25;5.43;;;9.40;99.90;;;;;;5020876;28;20259;-54
2022/10/19 03:57:41;;;;;;;11.20;5.72;;;9.40;99.90;;;;;;5018934;28;20524;-51
2022/10/19 04:00:08;;;;;;;8.93;5.50;;;9.40;99.90;;;;;;5010341;28;20191;-55
2022/10/19 04:02:39;;;;;;;11.02;5.70;;;9.30;99.90;;;;;;5014011;28;20264;-55
2022/10/19 04:05:06;;;;;;;12.95;6.03;;;9.40;99.90;;;;;;5014216;28;20682;-53
2022/10/19 04:07:31;;;;;;;11.45;6.28;;;9.30;99.90;;;;;;5013059;28;20528;-56
2022/10/19 04:09:57;;;;;;;10.70;5.60;;;9.30;99.90;;;;;;5007895;28;20215;-65
2022/10/19 04:12:23;;;;;;;9.52;5.80;;;9.30;99.90;;;;;;5011854;28;20241;-54
2022/10/19 04:14:49;;;;;;;12.55;5.70;;;9.40;99.90;;;;;;5021311;28;20294;-50
2022/10/19 04:17:15;;;;;;;10.73;6.15;;;9.30;99.90;;;;;;5012573;28;20208;-49
2022/10/19 04:19:40;;;;;;;11.20;6.25;;;9.30;99.90;;;;;;5009831;28;20663;-51
2022/10/19 04:22:06;;;;;;;10.75;5.47;;;9.30;99.90;;;;;;5013957;28;20629;-57
2022/10/19 04:24:32;;;;;;;8.00;5.63;;;9.20;99.90;;;;;;5014272;28;20185;-51
2022/10/19 04:26:57;;;;;;;10.02;5.25;;;9.20;99.90;;;;;;5010903;28;20192;-49
2022/10/19 04:29:25;;;;;;;7.30;4.65;;;9.20;99.90;;;;;;5013296;28;20180;-50
2022/10/19 04:31:51;;;;;;;9.95;4.80;;;9.20;99.90;;;;;;5012226;28;20567;-50
2022/10/19 04:34:17;;;;;;;7.82;4.88;;;9.10;99.90;;;;;;5013267;28;20203;-51
2022/10/19 04:36:43;;;;;;;11.15;4.68;;;9.10;99.90;;;;;;5005486;28;20572;-50
2022/10/19 04:39:09;;;;;;;7.97;4.72;;;9.10;99.90;;;;;;5012712;28;20185;-52
2022/10/19 04:41:37;;;;;;;11.63;4.70;;;9.10;99.90;;;;;;5013340;28;20177;-53
2022/10/19 04:44:05;;;;;;;7.57;4.65;;;9.10;99.90;;;;;;5008421;28;20307;-52
2022/10/19 04:46:31;;;;;;;11.10;5.00;;;9.10;99.90;;;;;;5013008;28;20764;-51
2022/10/19 04:48:58;;;;;;;11.40;4.85;;;9.10;99.90;;;;;;5011132;28;20185;-55
2022/10/19 04:51:24;;;;;;;9.52;4.70;;;9.10;99.90;;;;;;5027841;28;20231;-52
2022/10/19 04:53:50;;;;;;;12.90;5.50;;;9.20;99.90;;;;;;5010529;28;20276;-56
2022/10/19 04:56:22;;;;;;;12.35;4.60;;;9.20;99.90;;;;;;5008803;28;20319;-53
2022/10/19 04:58:48;;;;;;;15.30;5.03;;;9.10;99.90;;;;;;5012604;28;20168;-54
2022/10/19 05:01:13;;;;;;;9.35;4.88;;;9.10;99.90;;;;;;5012332;28;20188;-59
2022/10/19 05:03:40;;;;;;;12.52;5.43;;;9.10;99.90;;;;;;5013089;28;20211;-53
2022/10/19 05:06:06;;;;;;;10.05;5.00;;;9.20;99.90;;;;;;5006612;28;20184;-56
2022/10/19 05:08:33;;;;;;;13.20;5.68;;;9.10;99.90;;;;;;5007958;28;20191;-56
2022/10/19 05:11:04;;;;;;;9.95;5.93;;;9.10;99.90;;;;;;5013282;28;20207;-54
2022/10/19 05:13:31;;;;;;;11.70;5.78;;;9.10;99.90;;;;;;5013726;28;20672;-54
2022/10/19 05:16:03;;;;;;;11.40;5.30;;;9.10;99.90;;;;;;5013232;28;20200;-56
2022/10/19 05:18:28;;;;;;;15.70;5.28;;;9.10;99.90;;;;;;5015999;28;20199;-54
2022/10/19 05:21:11;;;;;;;8.52;5.57;;;9.00;99.90;;;;;;5017022;28;20173;-53
2022/10/19 05:23:38;;;;;;;10.02;5.93;;;9.00;99.90;;;;;;5017036;28;20242;-52
2022/10/19 05:26:07;;;;;;;13.85;5.25;;;9.00;99.90;;;;;;5013179;28;20184;-56
2022/10/19 05:28:33;;;;;;;12.20;6.28;;;9.00;99.90;;;;;;5011799;28;20720;-54
2022/10/19 05:31:11;;;;;;;11.63;6.10;;;9.00;99.90;;;;;;5017510;28;20268;-52
2022/10/19 05:33:37;;;;;;;14.07;5.63;;;8.90;99.90;;;;;;5011954;28;20303;-54
2022/10/19 05:36:38;;;;;;;11.90;5.80;;;8.90;99.90;;;;;;5009932;28;20685;-55
2022/10/19 05:39:13;;;;;;;9.77;5.68;;;8.90;99.90;;;;;;5013771;28;20844;-57
2022/10/19 05:41:41;;;;;;;15.15;6.38;;;8.90;99.90;;;;;;5015545;28;20208;-57
2022/10/19 05:44:14;;;;;;;13.95;5.80;;;8.90;99.90;;;;;;5016034;28;20712;-56
2022/10/19 05:46:40;;;;;;;17.58;6.47;;;8.90;99.90;;;;;;5016963;28;20202;-52
